createdAt,value
2018-06-25T00:00:59.056Z,12.08
2018-06-25T00:03:25.971Z,12.08
2018-06-25T00:05:52.884Z,12.07
2018-06-25T00:08:19.813Z,12.06
2018-06-25T00:10:46.724Z,11.98
2018-06-25T00:13:13.641Z,11.89
2018-06-25T00:15:40.545Z,11.91
2018-06-25T00:18:07.520Z,11.83
2018-06-25T00:20:34.475Z,11.84
2018-06-25T00:23:01.385Z,11.84
2018-06-25T00:25:28.317Z,11.83
2018-06-25T00:27:55.235Z,11.69
2018-06-25T00:30:22.181Z,11.74
2018-06-25T00:32:49.107Z,11.78
2018-06-25T00:35:16.033Z,11.83
2018-06-25T00:37:42.966Z,11.77
2018-06-25T00:40:09.896Z,11.90
2018-06-25T00:42:36.857Z,11.78
2018-06-25T00:45:03.809Z,11.79
2018-06-25T00:47:30.733Z,11.77
2018-06-25T00:49:57.652Z,11.78
2018-06-25T00:52:24.604Z,11.78
2018-06-25T00:54:51.523Z,11.73
2018-06-25T00:57:18.461Z,11.75
2018-06-25T00:59:51.377Z,11.72
2018-06-25T01:02:18.527Z,11.79
2018-06-25T01:04:45.487Z,11.87
2018-06-25T01:07:17.694Z,11.83
2018-06-25T01:09:44.620Z,11.79
2018-06-25T01:12:11.828Z,11.82
2018-06-25T01:14:38.793Z,11.73
2018-06-25T01:17:06.292Z,11.79
2018-06-25T01:19:33.212Z,11.80
2018-06-25T01:22:00.130Z,11.82
2018-06-25T01:24:27.194Z,11.83
2018-06-25T01:26:54.116Z,11.82
2018-06-25T01:29:21.046Z,11.84
2018-06-25T01:31:47.960Z,11.85
2018-06-25T01:34:14.881Z,11.86
2018-06-25T01:36:41.800Z,11.86
2018-06-25T01:39:09.797Z,11.97
2018-06-25T01:41:36.709Z,12.01
2018-06-25T01:44:03.653Z,12.00
2018-06-25T01:46:30.559Z,11.99
2018-06-25T01:48:57.485Z,11.96
2018-06-25T01:51:24.404Z,11.97
2018-06-25T01:53:51.330Z,12.05
2018-06-25T01:56:18.244Z,11.91
2018-06-25T01:58:45.180Z,11.91
2018-06-25T02:01:12.089Z,11.97
2018-06-25T02:03:38.994Z,12.05
2018-06-25T02:06:05.901Z,12.02
2018-06-25T02:08:32.838Z,12.06
2018-06-25T02:10:59.756Z,11.98
2018-06-25T02:13:26.683Z,12.00
2018-06-25T02:15:53.597Z,12.03
2018-06-25T02:18:20.539Z,12.09
2018-06-25T02:20:47.449Z,12.12
2018-06-25T02:23:14.350Z,12.09
2018-06-25T02:25:41.261Z,12.06
2018-06-25T02:28:08.190Z,12.01
2018-06-25T02:30:35.469Z,11.99
2018-06-25T02:33:02.490Z,11.98
2018-06-25T02:35:29.354Z,11.93
2018-06-25T02:37:56.268Z,11.93
2018-06-25T02:40:23.196Z,11.91
2018-06-25T02:42:50.124Z,11.91
2018-06-25T02:45:17.094Z,11.94
2018-06-25T02:47:43.997Z,11.97
2018-06-25T02:50:10.942Z,11.97
2018-06-25T02:52:37.857Z,11.97
2018-06-25T02:55:04.793Z,12.05
2018-06-25T02:57:31.721Z,12.05
2018-06-25T02:59:58.697Z,12.03
2018-06-25T03:02:25.615Z,12.07
2018-06-25T03:04:52.541Z,12.10
2018-06-25T03:07:19.469Z,12.17
2018-06-25T03:09:46.402Z,12.20
2018-06-25T03:12:13.331Z,12.21
2018-06-25T03:14:40.283Z,12.25
2018-06-25T03:17:07.233Z,12.35
2018-06-25T03:19:34.161Z,12.40
2018-06-25T03:22:01.105Z,12.44
2018-06-25T03:24:28.031Z,12.51
2018-06-25T03:26:54.953Z,12.57
2018-06-25T03:29:21.899Z,12.61
2018-06-25T03:31:48.840Z,12.63
2018-06-25T03:34:15.784Z,12.67
2018-06-25T03:36:42.716Z,12.69
2018-06-25T03:39:10.905Z,12.74
2018-06-25T03:41:37.849Z,12.80
2018-06-25T03:44:04.797Z,12.84
2018-06-25T03:46:31.742Z,12.86
2018-06-25T03:48:58.677Z,12.92
2018-06-25T03:51:25.633Z,12.98
2018-06-25T03:53:52.573Z,13.01
2018-06-25T03:56:19.524Z,13.10
2018-06-25T03:58:46.451Z,13.10
2018-06-25T04:01:13.402Z,13.11
2018-06-25T04:03:40.328Z,13.14
2018-06-25T04:06:07.281Z,13.21
2018-06-25T04:08:34.214Z,13.20
2018-06-25T04:11:01.166Z,13.28
2018-06-25T04:13:28.100Z,13.33
2018-06-25T04:15:55.025Z,13.43
2018-06-25T04:18:21.969Z,13.46
2018-06-25T04:20:49.010Z,13.42
2018-06-25T04:23:15.857Z,13.51
2018-06-25T04:25:42.830Z,13.53
2018-06-25T04:28:09.757Z,13.56
2018-06-25T04:30:36.712Z,13.62
2018-06-25T04:33:03.740Z,13.68
2018-06-25T04:35:30.722Z,13.73
2018-06-25T04:37:57.673Z,13.71
2018-06-25T04:40:24.601Z,13.80
2018-06-25T04:42:51.543Z,13.82
2018-06-25T04:45:18.481Z,13.90
2018-06-25T04:47:45.448Z,13.94
2018-06-25T04:50:12.387Z,13.94
2018-06-25T04:52:39.323Z,13.95
2018-06-25T04:55:06.282Z,14.00
2018-06-25T04:57:33.236Z,14.04
2018-06-25T05:00:00.477Z,14.06
2018-06-25T05:02:27.414Z,14.10
2018-06-25T05:04:54.357Z,14.18
2018-06-25T05:07:21.303Z,14.13
2018-06-25T05:09:48.243Z,14.18
2018-06-25T05:12:15.187Z,14.22
2018-06-25T05:14:42.126Z,14.23
2018-06-25T05:17:09.066Z,14.33
2018-06-25T05:19:36.014Z,14.33
2018-06-25T05:22:02.968Z,14.31
2018-06-25T05:24:29.893Z,14.39
2018-06-25T05:26:56.865Z,14.41
2018-06-25T05:29:23.805Z,14.46
2018-06-25T05:31:50.757Z,14.48
2018-06-25T05:34:17.717Z,14.38
2018-06-25T05:36:44.668Z,14.47
2018-06-25T05:39:12.021Z,14.53
2018-06-25T05:41:39.280Z,14.49
2018-06-25T05:44:06.343Z,14.56
2018-06-25T05:46:33.297Z,14.54
2018-06-25T05:49:00.230Z,14.45
2018-06-25T05:51:27.172Z,14.53
2018-06-25T05:53:54.093Z,14.59
2018-06-25T05:56:21.205Z,14.64
2018-06-25T05:58:48.117Z,14.56
2018-06-25T06:01:15.057Z,14.57
2018-06-25T06:03:41.997Z,14.57
2018-06-25T06:06:08.933Z,14.68
2018-06-25T06:08:35.859Z,14.73
2018-06-25T06:11:02.813Z,14.62
2018-06-25T06:13:29.737Z,14.66
2018-06-25T06:15:56.708Z,14.68
2018-06-25T06:18:23.646Z,14.69
2018-06-25T06:20:50.597Z,14.77
2018-06-25T06:23:17.527Z,14.74
2018-06-25T06:25:44.464Z,14.86
2018-06-25T06:28:11.397Z,14.90
2018-06-25T06:30:38.385Z,14.90
2018-06-25T06:33:05.458Z,14.83
2018-06-25T06:35:32.373Z,14.90
2018-06-25T06:37:59.331Z,14.89
2018-06-25T06:40:26.919Z,14.83
2018-06-25T06:42:53.885Z,14.93
2018-06-25T06:45:20.852Z,15.17
2018-06-25T06:47:47.752Z,15.04
2018-06-25T06:50:14.677Z,15.04
2018-06-25T06:52:41.617Z,14.95
2018-06-25T06:55:08.590Z,15.10
2018-06-25T06:57:35.612Z,15.09
2018-06-25T07:00:02.522Z,14.89
2018-06-25T07:02:29.461Z,14.93
2018-06-25T07:04:56.402Z,15.07
2018-06-25T07:07:23.373Z,15.12
2018-06-25T07:09:50.285Z,14.97
2018-06-25T07:12:17.209Z,15.00
2018-06-25T07:14:44.144Z,14.93
2018-06-25T07:17:11.062Z,14.81
2018-06-25T07:19:37.968Z,14.95
2018-06-25T07:22:04.888Z,14.94
2018-06-25T07:24:31.813Z,15.10
2018-06-25T07:26:58.770Z,15.07
2018-06-25T07:29:25.713Z,15.15
2018-06-25T07:31:52.646Z,15.40
2018-06-25T07:34:19.596Z,15.46
2018-06-25T07:36:46.553Z,15.58
2018-06-25T07:39:13.514Z,15.46
2018-06-25T07:41:40.464Z,15.47
2018-06-25T07:44:07.409Z,15.34
2018-06-25T07:46:34.366Z,15.26
2018-06-25T07:49:01.350Z,15.35
2018-06-25T07:51:28.304Z,15.50
2018-06-25T07:53:55.254Z,15.51
2018-06-25T07:56:22.205Z,15.47
2018-06-25T07:58:49.149Z,15.40
2018-06-25T08:01:16.075Z,15.44
2018-06-25T08:03:43.072Z,15.57
2018-06-25T08:06:09.953Z,15.51
2018-06-25T08:08:36.926Z,15.48
2018-06-25T08:11:03.872Z,15.64
2018-06-25T08:13:30.800Z,15.68
2018-06-25T08:15:57.725Z,15.60
2018-06-25T08:18:24.689Z,16.13
2018-06-25T08:20:51.611Z,16.10
2018-06-25T08:23:18.540Z,16.19
2018-06-25T08:25:45.474Z,16.30
2018-06-25T08:28:12.417Z,16.18
2018-06-25T08:30:39.351Z,16.17
2018-06-25T08:33:06.297Z,16.52
2018-06-25T08:35:33.262Z,16.41
2018-06-25T08:38:00.193Z,16.47
2018-06-25T08:40:27.117Z,16.53
2018-06-25T08:42:54.021Z,16.56
2018-06-25T08:45:20.951Z,16.81
2018-06-25T08:47:47.873Z,16.52
2018-06-25T08:50:14.781Z,16.68
2018-06-25T08:52:41.695Z,16.63
2018-06-25T08:55:08.637Z,16.52
2018-06-25T08:57:35.582Z,16.33
2018-06-25T09:00:02.525Z,16.42
2018-06-25T09:02:29.461Z,16.31
2018-06-25T09:04:56.377Z,16.36
2018-06-25T09:07:23.329Z,16.36
2018-06-25T09:09:50.300Z,16.43
2018-06-25T09:12:17.192Z,16.55
2018-06-25T09:14:44.141Z,16.49
2018-06-25T09:17:11.114Z,16.58
2018-06-25T09:19:38.054Z,16.55
2018-06-25T09:22:05.097Z,16.86
2018-06-25T09:24:31.999Z,17.34
2018-06-25T09:26:58.897Z,17.28
2018-06-25T09:29:25.849Z,17.05
2018-06-25T09:31:52.769Z,17.17
2018-06-25T09:34:25.421Z,16.91
2018-06-25T09:36:52.368Z,17.14
2018-06-25T09:39:19.309Z,17.05
2018-06-25T09:41:46.601Z,17.02
2018-06-25T09:44:13.186Z,16.88
2018-06-25T09:46:40.149Z,17.11
2018-06-25T09:49:07.082Z,17.33
2018-06-25T09:51:34.020Z,17.43
2018-06-25T09:54:01.008Z,17.13
2018-06-25T09:56:27.944Z,17.09
2018-06-25T09:58:54.905Z,17.11
2018-06-25T10:01:21.837Z,16.97
2018-06-25T10:03:48.801Z,17.31
2018-06-25T10:06:15.760Z,17.15
2018-06-25T10:08:42.698Z,16.84
2018-06-25T10:11:09.625Z,17.05
2018-06-25T10:13:36.590Z,17.06
2018-06-25T10:16:03.545Z,17.03
2018-06-25T10:18:30.496Z,17.42
2018-06-25T10:20:57.516Z,17.64
2018-06-25T10:23:24.722Z,17.53
2018-06-25T10:25:51.662Z,17.35
2018-06-25T10:28:18.598Z,17.84
2018-06-25T10:30:45.559Z,17.54
2018-06-25T10:33:12.480Z,17.36
2018-06-25T10:35:39.412Z,17.29
2018-06-25T10:38:06.371Z,17.73
2018-06-25T10:40:33.306Z,17.84
2018-06-25T10:43:00.233Z,18.11
2018-06-25T10:45:27.208Z,18.05
2018-06-25T10:47:54.137Z,18.58
2018-06-25T10:50:21.093Z,18.58
2018-06-25T10:52:48.028Z,18.59
2018-06-25T10:55:14.978Z,18.43
2018-06-25T10:57:41.937Z,18.39
2018-06-25T11:00:09.117Z,18.10
2018-06-25T11:02:35.860Z,18.27
2018-06-25T11:05:02.939Z,18.89
2018-06-25T11:07:29.925Z,18.91
2018-06-25T11:09:56.833Z,18.29
2018-06-25T11:12:23.804Z,18.63
2018-06-25T11:14:50.754Z,19.37
2018-06-25T11:17:17.705Z,19.24
2018-06-25T11:19:44.642Z,19.09
2018-06-25T11:22:11.565Z,19.36
2018-06-25T11:24:38.506Z,19.45
2018-06-25T11:27:05.607Z,19.23
2018-06-25T11:29:32.405Z,18.65
2018-06-25T11:31:59.329Z,18.62
2018-06-25T11:34:26.297Z,19.59
2018-06-25T11:36:53.225Z,19.62
2018-06-25T11:39:20.161Z,19.58
2018-06-25T11:41:47.088Z,19.20
2018-06-25T11:44:14.042Z,19.11
2018-06-25T11:46:41.006Z,19.14
2018-06-25T11:49:07.949Z,19.36
2018-06-25T11:51:34.917Z,19.26
2018-06-25T11:54:01.861Z,18.83
2018-06-25T11:56:28.826Z,18.64
2018-06-25T11:58:55.756Z,19.31
2018-06-25T12:01:22.693Z,20.04
2018-06-25T12:03:49.625Z,19.45
2018-06-25T12:06:16.569Z,19.90
2018-06-25T12:08:43.494Z,20.06
2018-06-25T12:11:10.434Z,19.37
2018-06-25T12:13:37.355Z,19.16
2018-06-25T12:16:04.517Z,19.64
2018-06-25T12:18:31.724Z,19.93
2018-06-25T12:20:58.682Z,19.95
2018-06-25T12:23:25.678Z,20.12
2018-06-25T12:25:52.637Z,19.91
2018-06-25T12:28:19.565Z,20.21
2018-06-25T12:30:46.525Z,20.28
2018-06-25T12:33:13.453Z,20.36
2018-06-25T12:35:40.385Z,19.98
2018-06-25T12:38:07.315Z,20.08
2018-06-25T12:40:34.265Z,19.85
2018-06-25T12:43:01.201Z,20.51
2018-06-25T12:45:28.139Z,19.98
2018-06-25T12:47:55.076Z,19.09
2018-06-25T12:50:22.057Z,19.69
2018-06-25T12:52:48.974Z,19.68
2018-06-25T12:55:15.937Z,18.82
2018-06-25T12:57:42.865Z,18.40
2018-06-25T13:00:09.818Z,18.78
2018-06-25T13:02:36.732Z,18.56
2018-06-25T13:05:04.245Z,18.31
2018-06-25T13:07:31.198Z,18.44
2018-06-25T13:09:58.161Z,18.39
2018-06-25T13:12:25.105Z,18.33
2018-06-25T13:14:52.042Z,18.45
2018-06-25T13:17:18.969Z,17.95
2018-06-25T13:19:45.899Z,17.57
2018-06-25T13:22:13.397Z,17.67
2018-06-25T13:24:40.338Z,17.61
2018-06-25T13:27:07.280Z,17.43
2018-06-25T13:29:34.210Z,17.17
2018-06-25T13:32:01.157Z,17.26
2018-06-25T13:34:28.074Z,17.17
2018-06-25T13:36:54.986Z,17.26
2018-06-25T13:39:21.915Z,17.57
2018-06-25T13:41:48.858Z,17.77
2018-06-25T13:44:15.780Z,17.41
2018-06-25T13:46:42.720Z,17.32
2018-06-25T13:49:09.634Z,17.21
2018-06-25T13:51:36.599Z,17.38
2018-06-25T13:54:03.564Z,16.84
2018-06-25T13:56:30.513Z,16.84
2018-06-25T13:58:57.434Z,16.67
2018-06-25T14:01:24.369Z,16.87
2018-06-25T14:03:51.279Z,16.93
2018-06-25T14:06:18.201Z,16.99
2018-06-25T14:08:45.130Z,16.99
2018-06-25T14:11:12.061Z,16.94
2018-06-25T14:13:38.968Z,16.77
2018-06-25T14:16:05.948Z,16.81
2018-06-25T14:18:32.868Z,16.89
2018-06-25T14:20:59.815Z,17.13
2018-06-25T14:23:26.757Z,16.70
2018-06-25T14:25:59.376Z,16.29
2018-06-25T14:28:30.361Z,16.89
2018-06-25T14:31:03.136Z,16.76
2018-06-25T14:33:35.867Z,16.88
2018-06-25T14:36:02.804Z,16.96
2018-06-25T14:38:29.709Z,16.98
2018-06-25T14:40:56.649Z,17.28
2018-06-25T14:43:23.565Z,17.17
2018-06-25T14:45:50.473Z,16.98
2018-06-25T14:48:17.407Z,16.52
2018-06-25T14:50:44.301Z,16.60
2018-06-25T14:53:11.237Z,16.74
2018-06-25T14:55:38.176Z,16.55
2018-06-25T14:58:05.146Z,16.57
2018-06-25T15:00:32.049Z,16.78
2018-06-25T15:02:58.966Z,16.60
2018-06-25T15:05:25.889Z,16.83
2018-06-25T15:07:52.793Z,16.87
2018-06-25T15:10:19.708Z,16.70
2018-06-25T15:12:46.675Z,16.87
2018-06-25T15:15:13.591Z,16.90
2018-06-25T15:17:40.514Z,16.88
2018-06-25T15:20:07.453Z,16.46
2018-06-25T15:22:34.341Z,16.59
2018-06-25T15:25:01.284Z,16.73
2018-06-25T15:27:28.221Z,16.29
2018-06-25T15:29:55.141Z,16.28
2018-06-25T15:32:24.649Z,16.36
2018-06-25T15:34:51.553Z,16.43
2018-06-25T15:37:18.488Z,16.49
2018-06-25T15:39:45.414Z,16.58
2018-06-25T15:42:12.333Z,16.34
2018-06-25T15:44:39.232Z,16.11
2018-06-25T15:47:06.133Z,16.05
2018-06-25T15:49:33.047Z,16.01
2018-06-25T15:51:59.961Z,16.04
2018-06-25T15:54:26.877Z,16.03
2018-06-25T15:56:53.792Z,16.06
2018-06-25T15:59:20.716Z,15.96
2018-06-25T16:01:47.609Z,15.90
2018-06-25T16:04:14.529Z,15.82
2018-06-25T16:06:41.544Z,15.87
2018-06-25T16:09:08.381Z,15.86
2018-06-25T16:11:35.333Z,15.91
2018-06-25T16:14:02.701Z,15.60
2018-06-25T16:16:29.647Z,15.52
2018-06-25T16:18:56.560Z,15.59
2018-06-25T16:21:23.524Z,15.74
2018-06-25T16:23:50.446Z,15.72
2018-06-25T16:26:17.379Z,15.80
2018-06-25T16:28:44.333Z,15.67
2018-06-25T16:31:11.220Z,15.63
2018-06-25T16:33:38.116Z,15.63
2018-06-25T16:36:05.049Z,15.48
2018-06-25T16:38:31.932Z,15.58
2018-06-25T16:40:58.865Z,15.74
2018-06-25T16:43:25.774Z,15.46
2018-06-25T16:45:52.701Z,15.58
2018-06-25T16:48:19.600Z,15.63
2018-06-25T16:50:46.523Z,15.63
2018-06-25T16:53:13.424Z,15.46
2018-06-25T16:55:40.341Z,15.44
2018-06-25T16:58:07.388Z,15.51
2018-06-25T17:00:34.345Z,15.53
2018-06-25T17:03:01.254Z,15.42
2018-06-25T17:05:28.237Z,15.31
2018-06-25T17:07:55.180Z,15.41
2018-06-25T17:10:22.113Z,15.44
2018-06-25T17:13:04.246Z,15.18
2018-06-25T17:15:31.876Z,15.10
2018-06-25T17:17:58.893Z,14.97
2018-06-25T17:20:25.816Z,15.03
2018-06-25T17:22:52.883Z,15.08
2018-06-25T17:25:20.574Z,15.14
2018-06-25T17:27:49.731Z,15.16
2018-06-25T17:30:19.298Z,15.12
2018-06-25T17:33:20.469Z,15.15
2018-06-25T17:35:53.500Z,15.10
2018-06-25T17:39:26.629Z,15.00
2018-06-25T17:45:12.148Z,14.99
2018-06-25T17:47:56.953Z,15.06
2018-06-25T17:50:28.496Z,15.13
2018-06-25T18:24:37.365Z,14.90
2018-06-25T18:27:14.234Z,14.90
2018-06-25T18:29:41.156Z,14.96
2018-06-25T18:32:08.089Z,14.83
2018-06-25T18:34:35.003Z,14.78
2018-06-25T18:37:03.973Z,14.82
2018-06-25T18:39:33.048Z,14.79
2018-06-25T18:42:06.597Z,14.82
2018-06-25T18:44:35.575Z,14.69
2018-06-25T18:47:04.829Z,14.64
2018-06-25T18:49:32.057Z,14.64
2018-06-25T18:51:59.030Z,14.67
2018-06-25T18:54:25.961Z,14.72
2018-06-25T18:56:52.869Z,14.75
2018-06-25T18:59:19.826Z,14.76
2018-06-25T19:01:46.757Z,14.53
2018-06-25T19:04:13.701Z,14.52
2018-06-25T19:06:40.625Z,14.56
2018-06-25T19:09:08.642Z,14.49
2018-06-25T19:11:35.561Z,14.59
2018-06-25T19:14:02.535Z,14.55
2018-06-25T19:16:29.463Z,14.51
2018-06-25T19:18:56.411Z,14.44
2018-06-25T19:21:23.644Z,14.52
2018-06-25T19:23:51.036Z,14.56
2018-06-25T19:26:17.957Z,14.52
2018-06-25T19:28:44.939Z,14.52
2018-06-25T19:31:11.861Z,14.51
2018-06-25T19:33:38.817Z,14.56
2018-06-25T19:36:05.777Z,14.49
2018-06-25T19:38:32.705Z,14.50
2018-06-25T19:40:59.634Z,14.41
2018-06-25T19:43:26.574Z,14.40
2018-06-25T19:45:53.496Z,14.44
2018-06-25T19:48:20.434Z,14.40
2018-06-25T19:50:47.336Z,14.51
2018-06-25T19:53:14.272Z,14.44
2018-06-25T19:55:41.194Z,14.45
2018-06-25T19:58:08.112Z,14.39
2018-06-25T20:00:35.032Z,14.48
2018-06-25T20:03:01.969Z,14.48
2018-06-25T20:05:28.903Z,14.38
2018-06-25T20:07:55.838Z,14.38
2018-06-25T20:10:22.765Z,14.48
2018-06-25T20:12:49.709Z,14.38
2018-06-25T20:15:16.657Z,14.43
2018-06-25T20:17:43.687Z,14.33
2018-06-25T20:20:10.637Z,14.32
2018-06-25T20:22:37.578Z,14.38
2018-06-25T20:25:05.908Z,14.39
2018-06-25T20:27:32.824Z,14.27
2018-06-25T20:29:59.753Z,14.32
2018-06-25T20:32:26.684Z,14.33
2018-06-25T20:34:53.615Z,14.36
2018-06-25T20:37:20.557Z,14.25
2018-06-25T20:39:48.283Z,14.35
2018-06-25T20:42:15.236Z,14.28
2018-06-25T20:44:42.210Z,14.35
2018-06-25T20:47:09.146Z,14.30
2018-06-25T20:49:36.081Z,14.26
2018-06-25T20:52:03.027Z,14.23
2018-06-25T20:54:29.949Z,14.18
2018-06-25T20:56:56.910Z,14.24
2018-06-25T20:59:23.816Z,14.21
2018-06-25T21:01:50.741Z,14.19
2018-06-25T21:04:17.669Z,14.20
2018-06-25T21:06:44.613Z,14.21
2018-06-25T21:09:12.110Z,14.21
2018-06-25T21:11:39.575Z,14.11
2018-06-25T21:14:06.497Z,14.15
2018-06-25T21:16:33.461Z,14.13
2018-06-25T21:19:00.433Z,14.20
2018-06-25T21:21:27.373Z,14.26
2018-06-25T21:23:54.347Z,14.21
2018-06-25T21:26:21.284Z,14.17
2018-06-25T21:28:48.227Z,14.10
2018-06-25T21:31:15.177Z,14.09
2018-06-25T21:33:42.093Z,14.11
2018-06-25T21:36:09.053Z,14.10
2018-06-25T21:38:35.947Z,14.09
2018-06-25T21:41:02.914Z,14.02
2018-06-25T21:43:29.840Z,14.00
2018-06-25T21:45:56.774Z,14.03
2018-06-25T21:48:23.696Z,14.04
2018-06-25T21:50:50.637Z,14.01
2018-06-25T21:53:17.598Z,13.97
2018-06-25T21:55:44.817Z,13.99
2018-06-25T21:58:11.768Z,13.98
2018-06-25T22:00:49.870Z,14.01
2018-06-25T22:03:16.930Z,14.06
2018-06-25T22:05:43.869Z,14.02
2018-06-25T22:08:11.228Z,14.05
2018-06-25T22:10:38.399Z,14.01
2018-06-25T22:13:05.535Z,13.95
2018-06-25T22:15:32.613Z,13.92
2018-06-25T22:18:00.084Z,13.92
2018-06-25T22:20:27.053Z,13.93
2018-06-25T22:22:54.162Z,13.87
2018-06-25T22:25:21.363Z,13.90
2018-06-25T22:27:48.323Z,13.86
2018-06-25T22:30:15.268Z,13.92
2018-06-25T22:32:42.268Z,13.88
2018-06-25T22:35:09.769Z,13.88
2018-06-25T22:37:36.873Z,13.83
2018-06-25T22:40:03.789Z,13.79
2018-06-25T22:42:30.929Z,13.77
2018-06-25T22:44:58.174Z,13.83
2018-06-25T22:47:25.110Z,13.83
2018-06-25T22:49:52.244Z,13.77
2018-06-25T22:52:19.219Z,13.83
2018-06-25T22:54:46.521Z,13.81
2018-06-25T22:57:13.605Z,13.77
2018-06-25T22:59:40.733Z,13.79
2018-06-25T23:02:08.041Z,13.79
2018-06-25T23:04:35.141Z,13.78
2018-06-25T23:07:02.270Z,13.80
2018-06-25T23:09:29.201Z,13.76
2018-06-25T23:11:56.155Z,13.79
2018-06-25T23:14:23.076Z,13.78
2018-06-25T23:16:50.017Z,13.78
2018-06-25T23:19:16.958Z,13.78
2018-06-25T23:21:43.885Z,13.81
2018-06-25T23:24:10.801Z,13.85
2018-06-25T23:26:37.721Z,13.81
2018-06-25T23:29:04.674Z,13.82
2018-06-25T23:31:31.674Z,13.80
2018-06-25T23:33:58.629Z,13.82
2018-06-25T23:36:25.574Z,13.81
2018-06-25T23:38:52.525Z,13.78
2018-06-25T23:41:19.440Z,13.75
2018-06-25T23:43:46.371Z,13.72
2018-06-25T23:46:13.324Z,13.70
2018-06-25T23:48:40.287Z,13.67
2018-06-25T23:51:07.206Z,13.65
2018-06-25T23:53:34.134Z,13.63
2018-06-25T23:56:01.074Z,13.67
2018-06-25T23:58:28.005Z,13.59
